sensor_id;sensor_type;location;lat;lon;timestamp;pressure;altitude;pressure_sealevel;temperature
48854;BMP280;34673;52.808;17.856;2023-07-08T00:01:19;101042.38;;;18.09
48854;BMP280;34673;52.808;17.856;2023-07-08T00:03:47;101038.94;;;18.07
48854;BMP280;34673;52.808;17.856;2023-07-08T00:06:16;101041.00;;;17.96
48854;BMP280;34673;52.808;17.856;2023-07-08T00:08:44;101040.41;;;17.86
48854;BMP280;34673;52.808;17.856;2023-07-08T00:11:12;101036.22;;;17.81
48854;BMP280;34673;52.808;17.856;2023-07-08T00:13:40;101040.63;;;17.77
48854;BMP280;34673;52.808;17.856;2023-07-08T00:16:12;101036.31;;;17.75
48854;BMP280;34673;52.808;17.856;2023-07-08T00:18:40;101032.97;;;17.69
48854;BMP280;34673;52.808;17.856;2023-07-08T00:21:15;101036.41;;;17.71
48854;BMP280;34673;52.808;17.856;2023-07-08T00:23:44;101022.66;;;17.63
48854;BMP280;34673;52.808;17.856;2023-07-08T00:26:22;101027.69;;;17.72
48854;BMP280;34673;52.808;17.856;2023-07-08T00:28:51;101030.34;;;17.69
48854;BMP280;34673;52.808;17.856;2023-07-08T00:31:20;101036.31;;;17.75
48854;BMP280;34673;52.808;17.856;2023-07-08T00:33:52;101030.13;;;17.77
48854;BMP280;34673;52.808;17.856;2023-07-08T00:36:25;101029.22;;;17.80
48854;BMP280;34673;52.808;17.856;2023-07-08T00:38:53;101027.53;;;17.79
48854;BMP280;34673;52.808;17.856;2023-07-08T00:41:24;101020.53;;;17.78
48854;BMP280;34673;52.808;17.856;2023-07-08T00:43:56;101021.38;;;17.80
48854;BMP280;34673;52.808;17.856;2023-07-08T00:51:38;101012.00;;;17.71
48854;BMP280;34673;52.808;17.856;2023-07-08T00:54:11;101012.19;;;17.63
48854;BMP280;34673;52.808;17.856;2023-07-08T00:56:47;101017.34;;;17.66
48854;BMP280;34673;52.808;17.856;2023-07-08T00:59:18;101017.34;;;17.66
48854;BMP280;34673;52.808;17.856;2023-07-08T01:01:48;101014.00;;;17.61
48854;BMP280;34673;52.808;17.856;2023-07-08T01:04:27;101004.63;;;17.53
48854;BMP280;34673;52.808;17.856;2023-07-08T01:06:58;101008.44;;;17.41
48854;BMP280;34673;52.808;17.856;2023-07-08T01:09:34;101014.63;;;17.37
48854;BMP280;34673;52.808;17.856;2023-07-08T01:12:08;101009.28;;;17.43
48854;BMP280;34673;52.808;17.856;2023-07-08T01:14:38;101014.41;;;17.46
48854;BMP280;34673;52.808;17.856;2023-07-08T01:17:09;101006.50;;;17.47
48854;BMP280;34673;52.808;17.856;2023-07-08T01:19:43;101015.38;;;17.42
48854;BMP280;34673;52.808;17.856;2023-07-08T01:22:10;101012.94;;;17.36
48854;BMP280;34673;52.808;17.856;2023-07-08T01:24:41;101005.34;;;17.25
48854;BMP280;34673;52.808;17.856;2023-07-08T01:27:15;101004.59;;;17.21
48854;BMP280;34673;52.808;17.856;2023-07-08T01:29:44;101007.28;;;17.18
48854;BMP280;34673;52.808;17.856;2023-07-08T01:32:13;101001.16;;;17.19
48854;BMP280;34673;52.808;17.856;2023-07-08T01:34:46;100985.63;;;17.13
48854;BMP280;34673;52.808;17.856;2023-07-08T01:37:39;100993.19;;;17.24
48854;BMP280;34673;52.808;17.856;2023-07-08T01:40:37;100996.00;;;17.16
48854;BMP280;34673;52.808;17.856;2023-07-08T01:43:10;100997.88;;;17.10
48854;BMP280;34673;52.808;17.856;2023-07-08T01:45:41;100992.00;;;17.01
48854;BMP280;34673;52.808;17.856;2023-07-08T01:48:11;100997.94;;;17.08
48854;BMP280;34673;52.808;17.856;2023-07-08T01:50:49;100999.81;;;17.03
48854;BMP280;34673;52.808;17.856;2023-07-08T01:53:20;101005.28;;;16.94
48854;BMP280;34673;52.808;17.856;2023-07-08T01:55:48;101005.38;;;16.88
48854;BMP280;34673;52.808;17.856;2023-07-08T01:58:17;101008.91;;;16.87
48854;BMP280;34673;52.808;17.856;2023-07-08T02:00:44;100995.84;;;16.87
48854;BMP280;34673;52.808;17.856;2023-07-08T02:03:11;101012.28;;;16.92
48854;BMP280;34673;52.808;17.856;2023-07-08T02:05:38;101010.63;;;16.88
48854;BMP280;34673;52.808;17.856;2023-07-08T02:08:05;101009.13;;;16.77
48854;BMP280;34673;52.808;17.856;2023-07-08T02:10:32;101016.06;;;16.78
48854;BMP280;34673;52.808;17.856;2023-07-08T02:12:59;101010.97;;;16.72
48854;BMP280;34673;52.808;17.856;2023-07-08T02:15:26;101019.69;;;16.71
48854;BMP280;34673;52.808;17.856;2023-07-08T02:17:53;101024.06;;;16.69
48854;BMP280;34673;52.808;17.856;2023-07-08T02:20:21;101025.91;;;16.66
48854;BMP280;34673;52.808;17.856;2023-07-08T02:22:48;101023.38;;;16.61
48854;BMP280;34673;52.808;17.856;2023-07-08T02:25:16;101023.59;;;16.52
48854;BMP280;34673;52.808;17.856;2023-07-08T02:27:44;101021.13;;;16.46
48854;BMP280;34673;52.808;17.856;2023-07-08T02:30:11;101012.63;;;16.36
48854;BMP280;34673;52.808;17.856;2023-07-08T02:32:38;101006.78;;;16.25
48854;BMP280;34673;52.808;17.856;2023-07-08T02:35:07;101022.34;;;16.29
48854;BMP280;34673;52.808;17.856;2023-07-08T02:37:35;101013.69;;;16.26
48854;BMP280;34673;52.808;17.856;2023-07-08T02:40:02;101012.00;;;16.25
48854;BMP280;34673;52.808;17.856;2023-07-08T02:42:29;101010.22;;;16.25
48854;BMP280;34673;52.808;17.856;2023-07-08T02:44:56;101015.47;;;16.25
48854;BMP280;34673;52.808;17.856;2023-07-08T02:47:24;101011.97;;;16.26
48854;BMP280;34673;52.808;17.856;2023-07-08T02:49:51;101012.81;;;16.27
48854;BMP280;34673;52.808;17.856;2023-07-08T02:52:18;101011.00;;;16.30
48854;BMP280;34673;52.808;17.856;2023-07-08T02:54:46;101007.31;;;16.39
48854;BMP280;34673;52.808;17.856;2023-07-08T02:57:13;101007.28;;;16.42
48854;BMP280;34673;52.808;17.856;2023-07-08T02:59:40;101004.84;;;16.34
48854;BMP280;34673;52.808;17.856;2023-07-08T03:02:07;101008.47;;;16.27
48854;BMP280;34673;52.808;17.856;2023-07-08T03:04:34;101002.53;;;16.19
48854;BMP280;34673;52.808;17.856;2023-07-08T03:07:07;100998.22;;;16.18
48854;BMP280;34673;52.808;17.856;2023-07-08T03:09:38;101006.81;;;16.23
48854;BMP280;34673;52.808;17.856;2023-07-08T03:12:09;101015.34;;;16.31
48854;BMP280;34673;52.808;17.856;2023-07-08T03:14:37;101011.63;;;16.42
48854;BMP280;34673;52.808;17.856;2023-07-08T03:17:04;101008.13;;;16.43
48854;BMP280;34673;52.808;17.856;2023-07-08T03:19:31;101015.00;;;16.47
48854;BMP280;34673;52.808;17.856;2023-07-08T03:21:59;101010.69;;;16.44
48854;BMP280;34673;52.808;17.856;2023-07-08T03:24:29;101015.00;;;16.47
48854;BMP280;34673;52.808;17.856;2023-07-08T03:26:59;101013.09;;;16.55
48854;BMP280;34673;52.808;17.856;2023-07-08T03:29:34;101004.41;;;16.53
48854;BMP280;34673;52.808;17.856;2023-07-08T03:32:01;101006.84;;;16.62
48854;BMP280;34673;52.808;17.856;2023-07-08T03:34:28;101009.28;;;16.68
48854;BMP280;34673;52.808;17.856;2023-07-08T03:36:56;101004.06;;;16.68
48854;BMP280;34673;52.808;17.856;2023-07-08T03:39:23;101007.59;;;16.67
48854;BMP280;34673;52.808;17.856;2023-07-08T03:41:52;101007.66;;;16.64
48854;BMP280;34673;52.808;17.856;2023-07-08T03:44:20;101010.31;;;16.62
48854;BMP280;34673;52.808;17.856;2023-07-08T03:46:49;101000.78;;;16.60
48854;BMP280;34673;52.808;17.856;2023-07-08T03:49:19;101005.75;;;16.72
48854;BMP280;34673;52.808;17.856;2023-07-08T03:51:52;101008.19;;;16.80
48854;BMP280;34673;52.808;17.856;2023-07-08T03:54:22;101001.09;;;16.85
48854;BMP280;34673;52.808;17.856;2023-07-08T03:56:53;101005.47;;;16.84
48854;BMP280;34673;52.808;17.856;2023-07-08T03:59:22;101004.63;;;16.82
48854;BMP280;34673;52.808;17.856;2023-07-08T04:01:50;101002.91;;;16.83
48854;BMP280;34673;52.808;17.856;2023-07-08T04:04:17;101004.53;;;16.87
48854;BMP280;34673;52.808;17.856;2023-07-08T04:06:44;100998.38;;;16.90
48854;BMP280;34673;52.808;17.856;2023-07-08T04:09:12;100998.31;;;16.93
48854;BMP280;34673;52.808;17.856;2023-07-08T04:11:40;100996.44;;;16.98
48854;BMP280;34673;52.808;17.856;2023-07-08T04:14:09;100999.66;;;17.09
48854;BMP280;34673;52.808;17.856;2023-07-08T04:16:52;100997.63;;;17.20
48854;BMP280;34673;52.808;17.856;2023-07-08T04:19:20;100990.44;;;17.28
48854;BMP280;34673;52.808;17.856;2023-07-08T04:21:50;100988.66;;;17.31
48854;BMP280;34673;52.808;17.856;2023-07-08T04:24:17;100997.16;;;17.39
48854;BMP280;34673;52.808;17.856;2023-07-08T04:26:46;100998.00;;;17.39
48854;BMP280;34673;52.808;17.856;2023-07-08T04:29:17;100998.72;;;17.46
48854;BMP280;34673;52.808;17.856;2023-07-08T04:31:44;100999.56;;;17.48
48854;BMP280;34673;52.808;17.856;2023-07-08T04:34:11;100993.25;;;17.55
48854;BMP280;34673;52.808;17.856;2023-07-08T04:36:39;100980.91;;;17.60
48854;BMP280;34673;52.808;17.856;2023-07-08T04:39:07;100985.81;;;17.72
48854;BMP280;34673;52.808;17.856;2023-07-08T04:41:38;100978.63;;;17.81
48854;BMP280;34673;52.808;17.856;2023-07-08T04:44:12;100974.75;;;17.94
48854;BMP280;34673;52.808;17.856;2023-07-08T04:46:46;100985.63;;;18.10
48854;BMP280;34673;52.808;17.856;2023-07-08T04:49:14;100988.03;;;18.17
48854;BMP280;34673;52.808;17.856;2023-07-08T04:51:42;100980.81;;;18.26
48854;BMP280;34673;52.808;17.856;2023-07-08T04:54:09;100962.38;;;18.29
48854;BMP280;34673;52.808;17.856;2023-07-08T04:56:40;100951.91;;;18.29
48854;BMP280;34673;52.808;17.856;2023-07-08T04:59:11;100980.78;;;18.55
48854;BMP280;34673;52.808;17.856;2023-07-08T05:01:40;100983.19;;;18.61
48854;BMP280;34673;52.808;17.856;2023-07-08T05:04:10;100981.94;;;18.75
48854;BMP280;34673;52.808;17.856;2023-07-08T05:06:38;100986.94;;;18.82
48854;BMP280;34673;52.808;17.856;2023-07-08T05:09:05;100984.06;;;18.90
48854;BMP280;34673;52.808;17.856;2023-07-08T05:11:33;100987.25;;;19.00
48854;BMP280;34673;52.808;17.856;2023-07-08T05:14:01;100985.06;;;19.13
48854;BMP280;34673;52.808;17.856;2023-07-08T05:16:28;100986.59;;;19.20
48854;BMP280;34673;52.808;17.856;2023-07-08T05:18:56;100986.25;;;19.29
48854;BMP280;34673;52.808;17.856;2023-07-08T05:21:23;100993.03;;;19.36
48854;BMP280;34673;52.808;17.856;2023-07-08T05:23:50;100974.41;;;19.44
48854;BMP280;34673;52.808;17.856;2023-07-08T05:26:17;100976.75;;;19.52
48854;BMP280;34673;52.808;17.856;2023-07-08T05:28:44;100974.72;;;19.60
48854;BMP280;34673;52.808;17.856;2023-07-08T05:31:11;100976.22;;;19.67
48854;BMP280;34673;52.808;17.856;2023-07-08T05:33:39;100970.00;;;19.69
48854;BMP280;34673;52.808;17.856;2023-07-08T05:36:06;100974.88;;;19.80
48854;BMP280;34673;52.808;17.856;2023-07-08T05:38:33;100961.63;;;19.83
48854;BMP280;34673;52.808;17.856;2023-07-08T05:41:00;100961.41;;;19.89
48854;BMP280;34673;52.808;17.856;2023-07-08T05:43:27;100966.22;;;20.02
48854;BMP280;34673;52.808;17.856;2023-07-08T05:45:59;100972.06;;;20.08
48854;BMP280;34673;52.808;17.856;2023-07-08T05:48:39;100964.03;;;20.13
48854;BMP280;34673;52.808;17.856;2023-07-08T05:51:06;100969.72;;;20.24
48854;BMP280;34673;52.808;17.856;2023-07-08T05:53:33;100961.84;;;20.24
48854;BMP280;34673;52.808;17.856;2023-07-08T05:56:02;100962.19;;;20.39
48854;BMP280;34673;52.808;17.856;2023-07-08T05:58:30;100964.56;;;20.45
48854;BMP280;34673;52.808;17.856;2023-07-08T06:00:57;100958.97;;;20.54
48854;BMP280;34673;52.808;17.856;2023-07-08T06:03:26;100958.72;;;20.60
48854;BMP280;34673;52.808;17.856;2023-07-08T06:05:53;100955.78;;;20.68
48854;BMP280;34673;52.808;17.856;2023-07-08T06:08:20;100956.94;;;20.83
48854;BMP280;34673;52.808;17.856;2023-07-08T06:10:48;100966.16;;;20.93
48854;BMP280;34673;52.808;17.856;2023-07-08T06:13:16;100954.41;;;21.01
48854;BMP280;34673;52.808;17.856;2023-07-08T06:15:43;100968.66;;;21.16
48854;BMP280;34673;52.808;17.856;2023-07-08T06:18:10;100961.06;;;21.31
48854;BMP280;34673;52.808;17.856;2023-07-08T06:20:37;100955.41;;;21.40
48854;BMP280;34673;52.808;17.856;2023-07-08T06:23:04;100955.59;;;21.56
48854;BMP280;34673;52.808;17.856;2023-07-08T06:25:32;100945.38;;;21.68
48854;BMP280;34673;52.808;17.856;2023-07-08T06:28:00;100959.19;;;21.92
48854;BMP280;34673;52.808;17.856;2023-07-08T06:30:27;100954.09;;;22.08
48854;BMP280;34673;52.808;17.856;2023-07-08T06:32:54;100956.09;;;22.22
48854;BMP280;34673;52.808;17.856;2023-07-08T06:35:22;100947.28;;;22.42
48854;BMP280;34673;52.808;17.856;2023-07-08T06:37:49;100941.09;;;22.61
48854;BMP280;34673;52.808;17.856;2023-07-08T06:40:16;100946.31;;;22.79
48854;BMP280;34673;52.808;17.856;2023-07-08T06:42:46;100944.25;;;23.04
48854;BMP280;34673;52.808;17.856;2023-07-08T06:45:20;100931.75;;;23.25
48854;BMP280;34673;52.808;17.856;2023-07-08T06:47:47;100940.03;;;23.52
48854;BMP280;34673;52.808;17.856;2023-07-08T06:50:14;100933.63;;;23.73
48854;BMP280;34673;52.808;17.856;2023-07-08T06:52:41;100934.50;;;23.89
48854;BMP280;34673;52.808;17.856;2023-07-08T06:55:10;100932.38;;;24.12
48854;BMP280;34673;52.808;17.856;2023-07-08T06:57:37;100937.44;;;24.32
48854;BMP280;34673;52.808;17.856;2023-07-08T07:00:08;100939.22;;;24.48
48854;BMP280;34673;52.808;17.856;2023-07-08T07:02:37;100931.06;;;24.67
48854;BMP280;34673;52.808;17.856;2023-07-08T07:05:06;100910.31;;;24.75
48854;BMP280;34673;52.808;17.856;2023-07-08T07:07:34;100935.91;;;25.05
48854;BMP280;34673;52.808;17.856;2023-07-08T07:10:02;100934.19;;;25.19
48854;BMP280;34673;52.808;17.856;2023-07-08T07:12:30;100936.66;;;25.37
48854;BMP280;34673;52.808;17.856;2023-07-08T07:15:03;100928.91;;;25.48
48854;BMP280;34673;52.808;17.856;2023-07-08T07:17:31;100928.38;;;25.57
48854;BMP280;34673;52.808;17.856;2023-07-08T07:19:58;100924.00;;;25.71
48854;BMP280;34673;52.808;17.856;2023-07-08T07:22:25;100934.34;;;25.90
48854;BMP280;34673;52.808;17.856;2023-07-08T07:24:52;100945.19;;;25.99
48854;BMP280;34673;52.808;17.856;2023-07-08T07:27:20;100946.31;;;26.09
48854;BMP280;34673;52.808;17.856;2023-07-08T07:29:49;100944.03;;;26.18
48854;BMP280;34673;52.808;17.856;2023-07-08T07:32:18;100934.06;;;26.21
48854;BMP280;34673;52.808;17.856;2023-07-08T07:34:49;100950.25;;;26.31
48854;BMP280;34673;52.808;17.856;2023-07-08T07:37:18;100953.06;;;26.42
48854;BMP280;34673;52.808;17.856;2023-07-08T07:39:46;100949.75;;;26.53
48854;BMP280;34673;52.808;17.856;2023-07-08T07:42:14;100946.16;;;26.67
48854;BMP280;34673;52.808;17.856;2023-07-08T07:44:43;100939.81;;;26.69
48854;BMP280;34673;52.808;17.856;2023-07-08T07:47:11;100945.72;;;26.87
48854;BMP280;34673;52.808;17.856;2023-07-08T07:49:39;100946.47;;;27.02
48854;BMP280;34673;52.808;17.856;2023-07-08T07:52:07;100948.38;;;27.13
48854;BMP280;34673;52.808;17.856;2023-07-08T07:54:34;100948.00;;;27.19
48854;BMP280;34673;52.808;17.856;2023-07-08T07:57:01;100940.34;;;27.27
48854;BMP280;34673;52.808;17.856;2023-07-08T07:59:29;100936.53;;;27.31
48854;BMP280;34673;52.808;17.856;2023-07-08T08:01:59;100945.91;;;27.50
48854;BMP280;34673;52.808;17.856;2023-07-08T08:04:27;100947.25;;;27.68
48854;BMP280;34673;52.808;17.856;2023-07-08T08:06:55;100952.50;;;27.82
48854;BMP280;34673;52.808;17.856;2023-07-08T08:09:22;100934.91;;;27.93
48854;BMP280;34673;52.808;17.856;2023-07-08T08:11:49;100949.13;;;28.04
48854;BMP280;34673;52.808;17.856;2023-07-08T08:14:18;100956.03;;;28.07
48854;BMP280;34673;52.808;17.856;2023-07-08T08:16:45;100960.16;;;28.11
48854;BMP280;34673;52.808;17.856;2023-07-08T08:19:12;100958.78;;;28.18
48854;BMP280;34673;52.808;17.856;2023-07-08T08:21:39;100952.53;;;28.31
48854;BMP280;34673;52.808;17.856;2023-07-08T08:24:07;100956.78;;;28.46
48854;BMP280;34673;52.808;17.856;2023-07-08T08:26:34;100956.09;;;28.55
48854;BMP280;34673;52.808;17.856;2023-07-08T08:29:02;100954.69;;;28.62
48854;BMP280;34673;52.808;17.856;2023-07-08T08:31:29;100959.69;;;28.67
48854;BMP280;34673;52.808;17.856;2023-07-08T08:33:58;100950.47;;;28.71
48854;BMP280;34673;52.808;17.856;2023-07-08T08:36:25;100957.66;;;28.82
48854;BMP280;34673;52.808;17.856;2023-07-08T08:38:52;100961.31;;;28.81
48854;BMP280;34673;52.808;17.856;2023-07-08T08:41:29;100960.59;;;28.90
48854;BMP280;34673;52.808;17.856;2023-07-08T08:43:57;100951.94;;;28.99
48854;BMP280;34673;52.808;17.856;2023-07-08T08:46:36;100945.91;;;29.08
48854;BMP280;34673;52.808;17.856;2023-07-08T08:49:37;100954.16;;;29.16
48854;BMP280;34673;52.808;17.856;2023-07-08T08:52:07;100958.53;;;29.17
48854;BMP280;34673;52.808;17.856;2023-07-08T08:54:35;100947.16;;;29.27
48854;BMP280;34673;52.808;17.856;2023-07-08T08:59:53;100949.34;;;29.44
48854;BMP280;34673;52.808;17.856;2023-07-08T09:04:49;100961.25;;;29.51
48854;BMP280;34673;52.808;17.856;2023-07-08T09:07:19;100954.00;;;29.53
48854;BMP280;34673;52.808;17.856;2023-07-08T09:12:22;100957.88;;;29.72
48854;BMP280;34673;52.808;17.856;2023-07-08T09:14:50;100940.41;;;29.90
48854;BMP280;34673;52.808;17.856;2023-07-08T09:17:30;100948.78;;;30.08
48854;BMP280;34673;52.808;17.856;2023-07-08T09:25:46;100940.72;;;30.19
48854;BMP280;34673;52.808;17.856;2023-07-08T09:28:15;100945.34;;;30.17
48854;BMP280;34673;52.808;17.856;2023-07-08T09:30:47;100943.50;;;30.18
48854;BMP280;34673;52.808;17.856;2023-07-08T09:33:15;100931.63;;;30.33
48854;BMP280;34673;52.808;17.856;2023-07-08T09:35:47;100934.25;;;30.44
48854;BMP280;34673;52.808;17.856;2023-07-08T09:38:21;100930.63;;;30.45
48854;BMP280;34673;52.808;17.856;2023-07-08T09:40:51;100937.13;;;30.53
48854;BMP280;34673;52.808;17.856;2023-07-08T09:43:38;100941.78;;;30.39
48854;BMP280;34673;52.808;17.856;2023-07-08T09:46:11;100934.78;;;30.38
48854;BMP280;34673;52.808;17.856;2023-07-08T09:48:39;100930.69;;;30.23
48854;BMP280;34673;52.808;17.856;2023-07-08T09:51:06;100927.66;;;30.28
48854;BMP280;34673;52.808;17.856;2023-07-08T09:53:35;100927.72;;;30.37
48854;BMP280;34673;52.808;17.856;2023-07-08T09:56:04;100932.81;;;30.40
48854;BMP280;34673;52.808;17.856;2023-07-08T09:58:36;100921.06;;;30.43
48854;BMP280;34673;52.808;17.856;2023-07-08T10:01:15;100920.53;;;30.49
48854;BMP280;34673;52.808;17.856;2023-07-08T10:03:46;100928.91;;;30.44
48854;BMP280;34673;52.808;17.856;2023-07-08T10:06:26;100925.50;;;30.42
48854;BMP280;34673;52.808;17.856;2023-07-08T10:08:54;100924.31;;;30.46
48854;BMP280;34673;52.808;17.856;2023-07-08T10:11:33;100925.03;;;30.48
48854;BMP280;34673;52.808;17.856;2023-07-08T10:14:36;100910.44;;;30.53
48854;BMP280;34673;52.808;17.856;2023-07-08T10:17:11;100914.75;;;30.65
48854;BMP280;34673;52.808;17.856;2023-07-08T10:19:40;100916.44;;;30.66
48854;BMP280;34673;52.808;17.856;2023-07-08T10:22:39;100920.59;;;30.59
48854;BMP280;34673;52.808;17.856;2023-07-08T10:25:33;100915.72;;;30.64
48854;BMP280;34673;52.808;17.856;2023-07-08T10:30:58;100912.56;;;30.70
48854;BMP280;34673;52.808;17.856;2023-07-08T10:33:38;100915.22;;;30.70
48854;BMP280;34673;52.808;17.856;2023-07-08T10:39:16;100909.69;;;30.62
48854;BMP280;34673;52.808;17.856;2023-07-08T10:41:56;100909.41;;;30.65
48854;BMP280;34673;52.808;17.856;2023-07-08T10:45:08;100908.91;;;30.71
48854;BMP280;34673;52.808;17.856;2023-07-08T10:47:42;100905.19;;;30.83
48854;BMP280;34673;52.808;17.856;2023-07-08T10:53:19;100904.38;;;31.04
48854;BMP280;34673;52.808;17.856;2023-07-08T11:04:20;100898.75;;;31.07
48854;BMP280;34673;52.808;17.856;2023-07-08T11:07:09;100881.94;;;31.16
48854;BMP280;34673;52.808;17.856;2023-07-08T11:09:49;100883.25;;;31.31
48854;BMP280;34673;52.808;17.856;2023-07-08T11:12:34;100895.22;;;31.27
48854;BMP280;34673;52.808;17.856;2023-07-08T11:15:06;100891.81;;;31.25
48854;BMP280;34673;52.808;17.856;2023-07-08T11:17:46;100881.97;;;31.26
48854;BMP280;34673;52.808;17.856;2023-07-08T11:20:24;100874.97;;;31.34
48854;BMP280;34673;52.808;17.856;2023-07-08T11:23:26;100865.09;;;31.25
48854;BMP280;34673;52.808;17.856;2023-07-08T11:26:10;100861.69;;;31.23
48854;BMP280;34673;52.808;17.856;2023-07-08T11:28:41;100865.38;;;31.22
48854;BMP280;34673;52.808;17.856;2023-07-08T11:31:08;100868.75;;;31.24
48854;BMP280;34673;52.808;17.856;2023-07-08T11:33:38;100869.00;;;31.21
48854;BMP280;34673;52.808;17.856;2023-07-08T11:36:06;100867.03;;;31.23
48854;BMP280;34673;52.808;17.856;2023-07-08T11:38:35;100869.19;;;31.29
48854;BMP280;34673;52.808;17.856;2023-07-08T11:41:11;100869.91;;;31.31
48854;BMP280;34673;52.808;17.856;2023-07-08T11:43:48;100864.03;;;31.38
48854;BMP280;34673;52.808;17.856;2023-07-08T11:46:23;100870.47;;;31.35
48854;BMP280;34673;52.808;17.856;2023-07-08T11:48:53;100867.69;;;31.37
48854;BMP280;34673;52.808;17.856;2023-07-08T11:51:32;100857.53;;;31.30
48854;BMP280;34673;52.808;17.856;2023-07-08T11:57:04;100843.44;;;31.28
48854;BMP280;34673;52.808;17.856;2023-07-08T11:59:33;100854.84;;;31.30
48854;BMP280;34673;52.808;17.856;2023-07-08T12:02:18;100853.84;;;31.22
48854;BMP280;34673;52.808;17.856;2023-07-08T12:05:03;100863.94;;;31.18
48854;BMP280;34673;52.808;17.856;2023-07-08T12:07:42;100856.19;;;31.15
48854;BMP280;34673;52.808;17.856;2023-07-08T12:10:16;100860.03;;;31.22
48854;BMP280;34673;52.808;17.856;2023-07-08T12:12:46;100858.84;;;31.15
48854;BMP280;34673;52.808;17.856;2023-07-08T12:15:27;100841.41;;;31.11
48854;BMP280;34673;52.808;17.856;2023-07-08T12:18:15;100855.47;;;31.13
48854;BMP280;34673;52.808;17.856;2023-07-08T12:20:55;100846.47;;;31.14
48854;BMP280;34673;52.808;17.856;2023-07-08T12:23:24;100845.03;;;31.10
48854;BMP280;34673;52.808;17.856;2023-07-08T12:25:55;100847.13;;;31.06
48854;BMP280;34673;52.808;17.856;2023-07-08T12:28:24;100849.75;;;30.97
48854;BMP280;34673;52.808;17.856;2023-07-08T12:30:51;100835.94;;;30.91
48854;BMP280;34673;52.808;17.856;2023-07-08T12:33:28;100837.09;;;30.89
48854;BMP280;34673;52.808;17.856;2023-07-08T12:35:56;100834.31;;;31.00
48854;BMP280;34673;52.808;17.856;2023-07-08T12:38:30;100826.69;;;30.96
48854;BMP280;34673;52.808;17.856;2023-07-08T12:41:00;100831.50;;;31.02
48854;BMP280;34673;52.808;17.856;2023-07-08T12:43:28;100833.44;;;31.00
48854;BMP280;34673;52.808;17.856;2023-07-08T12:45:55;100842.72;;;30.96
48854;BMP280;34673;52.808;17.856;2023-07-08T12:48:23;100828.66;;;30.94
48854;BMP280;34673;52.808;17.856;2023-07-08T12:50:50;100832.03;;;30.96
48854;BMP280;34673;52.808;17.856;2023-07-08T12:53:18;100826.69;;;30.96
48854;BMP280;34673;52.808;17.856;2023-07-08T12:55:46;100831.78;;;30.99
48854;BMP280;34673;52.808;17.856;2023-07-08T12:58:19;100829.09;;;30.99
48854;BMP280;34673;52.808;17.856;2023-07-08T13:00:49;100820.19;;;30.88
48854;BMP280;34673;52.808;17.856;2023-07-08T13:03:22;100824.63;;;30.78
48854;BMP280;34673;52.808;17.856;2023-07-08T13:05:53;100823.44;;;30.71
48854;BMP280;34673;52.808;17.856;2023-07-08T13:08:24;100816.84;;;30.75
48854;BMP280;34673;52.808;17.856;2023-07-08T13:10:55;100817.31;;;30.80
48854;BMP280;34673;52.808;17.856;2023-07-08T13:13:33;100822.53;;;30.82
48854;BMP280;34673;52.808;17.856;2023-07-08T13:16:02;100819.28;;;30.78
48854;BMP280;34673;52.808;17.856;2023-07-08T13:18:33;100814.69;;;30.69
48854;BMP280;34673;52.808;17.856;2023-07-08T13:21:02;100811.31;;;30.67
48854;BMP280;34673;52.808;17.856;2023-07-08T13:23:30;100809.34;;;30.69
48854;BMP280;34673;52.808;17.856;2023-07-08T13:25:58;100815.28;;;30.73
48854;BMP280;34673;52.808;17.856;2023-07-08T13:28:28;100802.78;;;30.73
48854;BMP280;34673;52.808;17.856;2023-07-08T13:31:00;100801.16;;;30.61
48854;BMP280;34673;52.808;17.856;2023-07-08T13:33:30;100807.50;;;30.60
48854;BMP280;34673;52.808;17.856;2023-07-08T13:36:02;100797.66;;;30.60
48854;BMP280;34673;52.808;17.856;2023-07-08T13:38:35;100788.06;;;30.58
48854;BMP280;34673;52.808;17.856;2023-07-08T13:41:06;100793.16;;;30.61
48854;BMP280;34673;52.808;17.856;2023-07-08T13:43:37;100785.66;;;30.55
48854;BMP280;34673;52.808;17.856;2023-07-08T13:46:05;100803.06;;;30.49
48854;BMP280;34673;52.808;17.856;2023-07-08T13:48:41;100801.56;;;30.35
48854;BMP280;34673;52.808;17.856;2023-07-08T13:51:16;100800.88;;;30.22
48854;BMP280;34673;52.808;17.856;2023-07-08T13:53:51;100796.41;;;30.22
48854;BMP280;34673;52.808;17.856;2023-07-08T13:56:28;100796.97;;;30.26
48854;BMP280;34673;52.808;17.856;2023-07-08T13:59:03;100805.97;;;30.25
48854;BMP280;34673;52.808;17.856;2023-07-08T14:01:33;100800.88;;;30.22
48854;BMP280;34673;52.808;17.856;2023-07-08T14:04:01;100792.41;;;30.17
48854;BMP280;34673;52.808;17.856;2023-07-08T14:06:34;100794.06;;;30.18
48854;BMP280;34673;52.808;17.856;2023-07-08T14:09:18;100796.06;;;30.16
48854;BMP280;34673;52.808;17.856;2023-07-08T14:11:47;100792.66;;;30.14
48854;BMP280;34673;52.808;17.856;2023-07-08T14:14:15;100785.88;;;30.10
48854;BMP280;34673;52.808;17.856;2023-07-08T14:16:45;100787.84;;;30.08
48854;BMP280;34673;52.808;17.856;2023-07-08T14:19:23;100781.06;;;30.03
48854;BMP280;34673;52.808;17.856;2023-07-08T14:21:54;100783.50;;;29.95
48854;BMP280;34673;52.808;17.856;2023-07-08T14:24:22;100784.03;;;29.89
48854;BMP280;34673;52.808;17.856;2023-07-08T14:26:49;100784.28;;;29.86
48854;BMP280;34673;52.808;17.856;2023-07-08T14:29:17;100777.41;;;29.72
48854;BMP280;34673;52.808;17.856;2023-07-08T14:31:44;100773.88;;;29.60
48854;BMP280;34673;52.808;17.856;2023-07-08T14:34:15;100776.06;;;29.55
48854;BMP280;34673;52.808;17.856;2023-07-08T14:36:44;100776.31;;;29.52
48854;BMP280;34673;52.808;17.856;2023-07-08T14:39:13;100774.91;;;29.48
48854;BMP280;34673;52.808;17.856;2023-07-08T14:41:41;100768.84;;;29.46
48854;BMP280;34673;52.808;17.856;2023-07-08T14:44:22;100767.38;;;29.42